sensor_id;sensor_type;location;lat;lon;timestamp;P1;durP1;ratioP1;P2;durP2;ratioP2
23046;SDS011;11691;51.462;6.902;2022-11-20T00:01:46;23.50;;;14.50;;
23046;SDS011;11691;51.462;6.902;2022-11-20T00:04:12;28.50;;;15.17;;
23046;SDS011;11691;51.462;6.902;2022-11-20T00:06:38;25.47;;;14.63;;
23046;SDS011;11691;51.462;6.902;2022-11-20T00:09:05;25.00;;;14.43;;
23046;SDS011;11691;51.462;6.902;2022-11-20T00:11:31;26.27;;;14.70;;
23046;SDS011;11691;51.462;6.902;2022-11-20T00:13:58;27.50;;;14.77;;
23046;SDS011;11691;51.462;6.902;2022-11-20T00:16:27;24.03;;;13.63;;
23046;SDS011;11691;51.462;6.902;2022-11-20T00:18:53;24.93;;;14.57;;
23046;SDS011;11691;51.462;6.902;2022-11-20T00:21:26;25.70;;;14.40;;
23046;SDS011;11691;51.462;6.902;2022-11-20T00:23:54;25.53;;;14.73;;
23046;SDS011;11691;51.462;6.902;2022-11-20T00:26:20;26.07;;;14.83;;
23046;SDS011;11691;51.462;6.902;2022-11-20T00:28:51;27.70;;;15.27;;
23046;SDS011;11691;51.462;6.902;2022-11-20T00:31:18;26.50;;;14.63;;
23046;SDS011;11691;51.462;6.902;2022-11-20T00:33:45;27.00;;;14.13;;
23046;SDS011;11691;51.462;6.902;2022-11-20T00:36:12;27.57;;;16.03;;
23046;SDS011;11691;51.462;6.902;2022-11-20T00:38:38;26.87;;;14.80;;
23046;SDS011;11691;51.462;6.902;2022-11-20T00:41:05;25.37;;;14.70;;
23046;SDS011;11691;51.462;6.902;2022-11-20T00:43:33;24.30;;;14.10;;
23046;SDS011;11691;51.462;6.902;2022-11-20T00:46:07;28.63;;;15.73;;
23046;SDS011;11691;51.462;6.902;2022-11-20T00:48:43;28.03;;;15.30;;
23046;SDS011;11691;51.462;6.902;2022-11-20T00:51:09;26.63;;;14.43;;
23046;SDS011;11691;51.462;6.902;2022-11-20T00:53:36;27.90;;;14.93;;
23046;SDS011;11691;51.462;6.902;2022-11-20T00:56:04;30.67;;;15.60;;
23046;SDS011;11691;51.462;6.902;2022-11-20T00:58:31;24.80;;;14.60;;
23046;SDS011;11691;51.462;6.902;2022-11-20T01:01:11;25.80;;;14.83;;
23046;SDS011;11691;51.462;6.902;2022-11-20T01:03:38;24.73;;;13.13;;
23046;SDS011;11691;51.462;6.902;2022-11-20T01:06:06;23.43;;;14.30;;
23046;SDS011;11691;51.462;6.902;2022-11-20T01:08:36;25.13;;;14.90;;
23046;SDS011;11691;51.462;6.902;2022-11-20T01:11:03;29.57;;;16.17;;
23046;SDS011;11691;51.462;6.902;2022-11-20T01:13:30;31.30;;;16.13;;
23046;SDS011;11691;51.462;6.902;2022-11-20T01:18:53;29.87;;;15.97;;
23046;SDS011;11691;51.462;6.902;2022-11-20T01:21:22;31.23;;;16.67;;
23046;SDS011;11691;51.462;6.902;2022-11-20T01:23:49;29.03;;;16.40;;
23046;SDS011;11691;51.462;6.902;2022-11-20T01:26:19;30.13;;;16.80;;
23046;SDS011;11691;51.462;6.902;2022-11-20T01:28:46;30.10;;;15.53;;
23046;SDS011;11691;51.462;6.902;2022-11-20T01:31:25;25.53;;;15.93;;
23046;SDS011;11691;51.462;6.902;2022-11-20T01:33:53;29.47;;;15.73;;
23046;SDS011;11691;51.462;6.902;2022-11-20T01:36:20;26.97;;;14.80;;
23046;SDS011;11691;51.462;6.902;2022-11-20T01:38:50;28.93;;;15.67;;
23046;SDS011;11691;51.462;6.902;2022-11-20T01:41:17;30.43;;;14.97;;
23046;SDS011;11691;51.462;6.902;2022-11-20T01:44:02;28.23;;;15.60;;
23046;SDS011;11691;51.462;6.902;2022-11-20T01:46:30;28.23;;;15.37;;
23046;SDS011;11691;51.462;6.902;2022-11-20T01:51:42;27.20;;;16.00;;
23046;SDS011;11691;51.462;6.902;2022-11-20T01:54:14;24.67;;;14.50;;
23046;SDS011;11691;51.462;6.902;2022-11-20T01:56:41;29.13;;;16.17;;
23046;SDS011;11691;51.462;6.902;2022-11-20T01:59:10;31.27;;;16.40;;
23046;SDS011;11691;51.462;6.902;2022-11-20T02:01:36;26.57;;;14.97;;
23046;SDS011;11691;51.462;6.902;2022-11-20T02:04:04;30.87;;;16.10;;
23046;SDS011;11691;51.462;6.902;2022-11-20T02:06:35;25.07;;;15.17;;
23046;SDS011;11691;51.462;6.902;2022-11-20T02:09:05;30.50;;;15.63;;
23046;SDS011;11691;51.462;6.902;2022-11-20T02:11:31;28.40;;;15.33;;
23046;SDS011;11691;51.462;6.902;2022-11-20T02:13:57;27.17;;;14.97;;
23046;SDS011;11691;51.462;6.902;2022-11-20T02:16:27;26.13;;;15.57;;
23046;SDS011;11691;51.462;6.902;2022-11-20T02:18:56;29.57;;;15.30;;
23046;SDS011;11691;51.462;6.902;2022-11-20T02:21:40;28.67;;;16.10;;
23046;SDS011;11691;51.462;6.902;2022-11-20T02:24:18;31.37;;;16.67;;
23046;SDS011;11691;51.462;6.902;2022-11-20T02:29:13;28.47;;;14.87;;
23046;SDS011;11691;51.462;6.902;2022-11-20T02:31:41;30.33;;;15.83;;
23046;SDS011;11691;51.462;6.902;2022-11-20T02:34:11;33.07;;;16.83;;
23046;SDS011;11691;51.462;6.902;2022-11-20T02:36:38;28.53;;;16.47;;
23046;SDS011;11691;51.462;6.902;2022-11-20T02:39:05;27.00;;;15.77;;
23046;SDS011;11691;51.462;6.902;2022-11-20T02:41:34;27.63;;;15.27;;
23046;SDS011;11691;51.462;6.902;2022-11-20T02:44:01;32.93;;;17.13;;
23046;SDS011;11691;51.462;6.902;2022-11-20T02:46:27;26.87;;;14.97;;
23046;SDS011;11691;51.462;6.902;2022-11-20T02:48:53;28.73;;;16.43;;
23046;SDS011;11691;51.462;6.902;2022-11-20T02:51:19;26.83;;;14.97;;
23046;SDS011;11691;51.462;6.902;2022-11-20T02:53:45;31.57;;;16.33;;
23046;SDS011;11691;51.462;6.902;2022-11-20T02:56:11;24.67;;;15.40;;
23046;SDS011;11691;51.462;6.902;2022-11-20T02:58:37;29.33;;;16.03;;
23046;SDS011;11691;51.462;6.902;2022-11-20T03:01:03;26.53;;;15.13;;
23046;SDS011;11691;51.462;6.902;2022-11-20T03:03:29;28.80;;;14.77;;
23046;SDS011;11691;51.462;6.902;2022-11-20T03:05:58;22.90;;;14.37;;
23046;SDS011;11691;51.462;6.902;2022-11-20T03:08:24;27.33;;;15.20;;
23046;SDS011;11691;51.462;6.902;2022-11-20T03:10:50;25.10;;;15.43;;
23046;SDS011;11691;51.462;6.902;2022-11-20T03:13:16;26.00;;;14.90;;
23046;SDS011;11691;51.462;6.902;2022-11-20T03:15:41;26.50;;;15.80;;
23046;SDS011;11691;51.462;6.902;2022-11-20T03:18:07;27.20;;;15.17;;
23046;SDS011;11691;51.462;6.902;2022-11-20T03:20:34;25.27;;;15.10;;
23046;SDS011;11691;51.462;6.902;2022-11-20T03:23:01;23.07;;;14.33;;
23046;SDS011;11691;51.462;6.902;2022-11-20T03:25:27;24.83;;;14.20;;
23046;SDS011;11691;51.462;6.902;2022-11-20T03:27:53;24.43;;;14.10;;
23046;SDS011;11691;51.462;6.902;2022-11-20T03:30:19;26.50;;;14.73;;
23046;SDS011;11691;51.462;6.902;2022-11-20T03:32:45;29.27;;;15.10;;
23046;SDS011;11691;51.462;6.902;2022-11-20T03:35:11;24.47;;;14.63;;
23046;SDS011;11691;51.462;6.902;2022-11-20T03:37:37;25.50;;;14.57;;
23046;SDS011;11691;51.462;6.902;2022-11-20T03:40:03;22.53;;;13.90;;
23046;SDS011;11691;51.462;6.902;2022-11-20T03:42:29;24.17;;;13.70;;
23046;SDS011;11691;51.462;6.902;2022-11-20T03:45:11;24.77;;;14.53;;
23046;SDS011;11691;51.462;6.902;2022-11-20T03:47:37;22.47;;;13.93;;
23046;SDS011;11691;51.462;6.902;2022-11-20T03:50:03;26.23;;;15.03;;
23046;SDS011;11691;51.462;6.902;2022-11-20T03:52:29;23.63;;;14.50;;
23046;SDS011;11691;51.462;6.902;2022-11-20T03:54:55;23.80;;;14.50;;
23046;SDS011;11691;51.462;6.902;2022-11-20T03:57:21;24.27;;;14.10;;
23046;SDS011;11691;51.462;6.902;2022-11-20T03:59:47;23.97;;;14.10;;
23046;SDS011;11691;51.462;6.902;2022-11-20T04:02:13;26.70;;;13.67;;
23046;SDS011;11691;51.462;6.902;2022-11-20T04:04:39;24.60;;;14.23;;
23046;SDS011;11691;51.462;6.902;2022-11-20T04:07:05;25.43;;;13.43;;
23046;SDS011;11691;51.462;6.902;2022-11-20T04:09:31;21.67;;;13.80;;
23046;SDS011;11691;51.462;6.902;2022-11-20T04:11:57;24.37;;;14.00;;
23046;SDS011;11691;51.462;6.902;2022-11-20T04:14:23;28.30;;;14.00;;
23046;SDS011;11691;51.462;6.902;2022-11-20T04:16:49;22.70;;;14.23;;
23046;SDS011;11691;51.462;6.902;2022-11-20T04:19:15;22.13;;;13.20;;
23046;SDS011;11691;51.462;6.902;2022-11-20T04:21:42;25.50;;;14.80;;
23046;SDS011;11691;51.462;6.902;2022-11-20T04:24:09;24.43;;;13.23;;
23046;SDS011;11691;51.462;6.902;2022-11-20T04:26:38;27.17;;;14.40;;
23046;SDS011;11691;51.462;6.902;2022-11-20T04:29:04;25.13;;;13.90;;
23046;SDS011;11691;51.462;6.902;2022-11-20T04:31:31;23.57;;;14.10;;
23046;SDS011;11691;51.462;6.902;2022-11-20T04:34:03;23.40;;;13.37;;
23046;SDS011;11691;51.462;6.902;2022-11-20T04:36:30;26.33;;;13.90;;
23046;SDS011;11691;51.462;6.902;2022-11-20T04:38:57;24.70;;;14.73;;
23046;SDS011;11691;51.462;6.902;2022-11-20T04:41:24;24.63;;;14.60;;
23046;SDS011;11691;51.462;6.902;2022-11-20T04:43:53;27.47;;;14.87;;
23046;SDS011;11691;51.462;6.902;2022-11-20T04:46:24;23.47;;;14.17;;
23046;SDS011;11691;51.462;6.902;2022-11-20T04:48:50;22.93;;;13.60;;
23046;SDS011;11691;51.462;6.902;2022-11-20T04:51:16;21.63;;;14.07;;
23046;SDS011;11691;51.462;6.902;2022-11-20T04:53:42;24.27;;;14.60;;
23046;SDS011;11691;51.462;6.902;2022-11-20T04:56:08;25.40;;;14.40;;
23046;SDS011;11691;51.462;6.902;2022-11-20T04:58:35;24.63;;;14.50;;
23046;SDS011;11691;51.462;6.902;2022-11-20T05:03:28;24.83;;;14.47;;
23046;SDS011;11691;51.462;6.902;2022-11-20T05:05:54;21.27;;;13.73;;
23046;SDS011;11691;51.462;6.902;2022-11-20T05:08:20;22.83;;;13.77;;
23046;SDS011;11691;51.462;6.902;2022-11-20T05:10:46;24.30;;;13.97;;
23046;SDS011;11691;51.462;6.902;2022-11-20T05:13:12;26.20;;;14.33;;
23046;SDS011;11691;51.462;6.902;2022-11-20T05:15:38;23.60;;;14.37;;
23046;SDS011;11691;51.462;6.902;2022-11-20T05:18:04;26.63;;;13.53;;
23046;SDS011;11691;51.462;6.902;2022-11-20T05:20:30;25.13;;;14.03;;
23046;SDS011;11691;51.462;6.902;2022-11-20T05:22:56;25.70;;;15.07;;
23046;SDS011;11691;51.462;6.902;2022-11-20T05:25:22;25.00;;;14.63;;
23046;SDS011;11691;51.462;6.902;2022-11-20T05:27:48;24.10;;;14.77;;
23046;SDS011;11691;51.462;6.902;2022-11-20T05:30:15;27.13;;;15.13;;
23046;SDS011;11691;51.462;6.902;2022-11-20T05:32:41;24.23;;;13.80;;
23046;SDS011;11691;51.462;6.902;2022-11-20T05:35:07;24.77;;;13.57;;
23046;SDS011;11691;51.462;6.902;2022-11-20T05:37:33;26.70;;;14.83;;
23046;SDS011;11691;51.462;6.902;2022-11-20T05:39:59;28.10;;;15.50;;
23046;SDS011;11691;51.462;6.902;2022-11-20T05:42:25;25.80;;;15.00;;
23046;SDS011;11691;51.462;6.902;2022-11-20T05:44:57;28.63;;;15.03;;
23046;SDS011;11691;51.462;6.902;2022-11-20T05:47:23;31.37;;;15.87;;
23046;SDS011;11691;51.462;6.902;2022-11-20T05:49:49;27.90;;;15.17;;
23046;SDS011;11691;51.462;6.902;2022-11-20T05:52:15;23.97;;;14.70;;
23046;SDS011;11691;51.462;6.902;2022-11-20T05:54:41;27.77;;;15.90;;
23046;SDS011;11691;51.462;6.902;2022-11-20T05:57:07;28.37;;;17.10;;
23046;SDS011;11691;51.462;6.902;2022-11-20T05:59:33;28.20;;;18.20;;
23046;SDS011;11691;51.462;6.902;2022-11-20T06:01:58;30.20;;;16.03;;
23046;SDS011;11691;51.462;6.902;2022-11-20T06:04:24;24.80;;;14.57;;
23046;SDS011;11691;51.462;6.902;2022-11-20T06:06:50;28.53;;;16.60;;
23046;SDS011;11691;51.462;6.902;2022-11-20T06:09:16;22.63;;;13.33;;
23046;SDS011;11691;51.462;6.902;2022-11-20T06:11:42;22.60;;;13.40;;
23046;SDS011;11691;51.462;6.902;2022-11-20T06:14:08;23.73;;;14.17;;
23046;SDS011;11691;51.462;6.902;2022-11-20T06:16:34;21.17;;;13.60;;
23046;SDS011;11691;51.462;6.902;2022-11-20T06:19:00;22.90;;;14.03;;
23046;SDS011;11691;51.462;6.902;2022-11-20T06:21:26;20.30;;;13.17;;
23046;SDS011;11691;51.462;6.902;2022-11-20T06:23:52;22.87;;;14.17;;
23046;SDS011;11691;51.462;6.902;2022-11-20T06:26:25;24.03;;;14.63;;
23046;SDS011;11691;51.462;6.902;2022-11-20T06:28:53;25.17;;;14.57;;
23046;SDS011;11691;51.462;6.902;2022-11-20T06:31:23;26.50;;;15.63;;
23046;SDS011;11691;51.462;6.902;2022-11-20T06:33:49;25.07;;;14.90;;
23046;SDS011;11691;51.462;6.902;2022-11-20T06:36:16;25.70;;;15.10;;
23046;SDS011;11691;51.462;6.902;2022-11-20T06:38:42;22.30;;;15.07;;
23046;SDS011;11691;51.462;6.902;2022-11-20T06:41:10;24.67;;;14.47;;
23046;SDS011;11691;51.462;6.902;2022-11-20T06:43:36;24.50;;;14.37;;
23046;SDS011;11691;51.462;6.902;2022-11-20T06:46:02;25.70;;;14.90;;
23046;SDS011;11691;51.462;6.902;2022-11-20T06:48:29;23.40;;;14.13;;
23046;SDS011;11691;51.462;6.902;2022-11-20T06:50:55;24.80;;;14.77;;
23046;SDS011;11691;51.462;6.902;2022-11-20T06:53:22;25.83;;;14.47;;
23046;SDS011;11691;51.462;6.902;2022-11-20T06:55:48;26.13;;;14.27;;
23046;SDS011;11691;51.462;6.902;2022-11-20T06:58:15;25.00;;;13.90;;
23046;SDS011;11691;51.462;6.902;2022-11-20T07:00:41;23.23;;;14.37;;
23046;SDS011;11691;51.462;6.902;2022-11-20T07:03:08;24.10;;;14.33;;
23046;SDS011;11691;51.462;6.902;2022-11-20T07:05:34;25.47;;;14.97;;
23046;SDS011;11691;51.462;6.902;2022-11-20T07:08:00;23.37;;;15.17;;
23046;SDS011;11691;51.462;6.902;2022-11-20T07:10:27;25.10;;;15.10;;
23046;SDS011;11691;51.462;6.902;2022-11-20T07:12:53;26.00;;;14.93;;
23046;SDS011;11691;51.462;6.902;2022-11-20T07:15:20;23.70;;;14.43;;
23046;SDS011;11691;51.462;6.902;2022-11-20T07:17:47;26.37;;;15.53;;
23046;SDS011;11691;51.462;6.902;2022-11-20T07:20:13;25.73;;;15.10;;
23046;SDS011;11691;51.462;6.902;2022-11-20T07:22:39;25.70;;;14.97;;
23046;SDS011;11691;51.462;6.902;2022-11-20T07:25:06;27.37;;;15.20;;
23046;SDS011;11691;51.462;6.902;2022-11-20T07:27:32;26.67;;;15.87;;
23046;SDS011;11691;51.462;6.902;2022-11-20T07:29:58;28.30;;;15.77;;
23046;SDS011;11691;51.462;6.902;2022-11-20T07:32:24;27.97;;;15.07;;
23046;SDS011;11691;51.462;6.902;2022-11-20T07:34:50;28.07;;;15.23;;
23046;SDS011;11691;51.462;6.902;2022-11-20T07:37:16;32.20;;;17.03;;
23046;SDS011;11691;51.462;6.902;2022-11-20T07:39:43;32.67;;;17.40;;
23046;SDS011;11691;51.462;6.902;2022-11-20T07:42:09;31.13;;;17.73;;
23046;SDS011;11691;51.462;6.902;2022-11-20T07:44:35;33.03;;;16.90;;
23046;SDS011;11691;51.462;6.902;2022-11-20T07:47:01;29.93;;;17.57;;
23046;SDS011;11691;51.462;6.902;2022-11-20T07:49:27;34.30;;;18.77;;
23046;SDS011;11691;51.462;6.902;2022-11-20T07:51:53;33.70;;;20.00;;
23046;SDS011;11691;51.462;6.902;2022-11-20T07:54:22;32.30;;;18.23;;
23046;SDS011;11691;51.462;6.902;2022-11-20T07:56:48;27.67;;;17.10;;
23046;SDS011;11691;51.462;6.902;2022-11-20T07:59:14;32.60;;;18.53;;
23046;SDS011;11691;51.462;6.902;2022-11-20T08:01:40;31.47;;;18.10;;
23046;SDS011;11691;51.462;6.902;2022-11-20T08:04:07;30.10;;;17.10;;
23046;SDS011;11691;51.462;6.902;2022-11-20T08:06:33;27.87;;;17.07;;
23046;SDS011;11691;51.462;6.902;2022-11-20T08:08:59;25.90;;;15.97;;
23046;SDS011;11691;51.462;6.902;2022-11-20T08:11:25;25.17;;;16.00;;
23046;SDS011;11691;51.462;6.902;2022-11-20T08:14:10;27.87;;;16.47;;
23046;SDS011;11691;51.462;6.902;2022-11-20T08:16:40;27.87;;;16.27;;
23046;SDS011;11691;51.462;6.902;2022-11-20T08:19:13;31.73;;;16.87;;
23046;SDS011;11691;51.462;6.902;2022-11-20T08:21:39;30.93;;;17.90;;
23046;SDS011;11691;51.462;6.902;2022-11-20T08:24:06;33.00;;;20.03;;
23046;SDS011;11691;51.462;6.902;2022-11-20T08:26:32;30.80;;;17.83;;
23046;SDS011;11691;51.462;6.902;2022-11-20T08:28:58;28.87;;;17.30;;
23046;SDS011;11691;51.462;6.902;2022-11-20T08:31:25;30.27;;;16.87;;
23046;SDS011;11691;51.462;6.902;2022-11-20T08:33:51;27.33;;;17.07;;
23046;SDS011;11691;51.462;6.902;2022-11-20T08:36:17;28.30;;;17.40;;
23046;SDS011;11691;51.462;6.902;2022-11-20T08:38:51;26.03;;;16.17;;
23046;SDS011;11691;51.462;6.902;2022-11-20T08:41:17;24.00;;;15.53;;
23046;SDS011;11691;51.462;6.902;2022-11-20T08:43:57;27.93;;;19.27;;
23046;SDS011;11691;51.462;6.902;2022-11-20T08:46:30;29.27;;;19.17;;
23046;SDS011;11691;51.462;6.902;2022-11-20T08:48:58;26.17;;;17.40;;
23046;SDS011;11691;51.462;6.902;2022-11-20T08:51:25;27.00;;;16.03;;
23046;SDS011;11691;51.462;6.902;2022-11-20T08:53:51;23.17;;;14.67;;
23046;SDS011;11691;51.462;6.902;2022-11-20T08:56:17;21.53;;;13.67;;
23046;SDS011;11691;51.462;6.902;2022-11-20T08:58:43;19.80;;;12.20;;
23046;SDS011;11691;51.462;6.902;2022-11-20T09:01:09;19.17;;;12.50;;
23046;SDS011;11691;51.462;6.902;2022-11-20T09:03:35;21.40;;;13.83;;
23046;SDS011;11691;51.462;6.902;2022-11-20T09:06:01;20.50;;;13.07;;
23046;SDS011;11691;51.462;6.902;2022-11-20T09:08:28;22.70;;;13.37;;
23046;SDS011;11691;51.462;6.902;2022-11-20T09:10:55;21.53;;;13.53;;
23046;SDS011;11691;51.462;6.902;2022-11-20T09:13:22;24.40;;;13.67;;
23046;SDS011;11691;51.462;6.902;2022-11-20T09:15:58;21.47;;;12.73;;
23046;SDS011;11691;51.462;6.902;2022-11-20T09:18:25;19.37;;;13.37;;
23046;SDS011;11691;51.462;6.902;2022-11-20T09:20:51;23.50;;;13.60;;
23046;SDS011;11691;51.462;6.902;2022-11-20T09:23:17;23.30;;;13.87;;
23046;SDS011;11691;51.462;6.902;2022-11-20T09:25:43;23.10;;;14.23;;
23046;SDS011;11691;51.462;6.902;2022-11-20T09:28:09;24.83;;;13.80;;
23046;SDS011;11691;51.462;6.902;2022-11-20T09:30:35;22.50;;;13.07;;
23046;SDS011;11691;51.462;6.902;2022-11-20T09:33:03;22.23;;;13.80;;
23046;SDS011;11691;51.462;6.902;2022-11-20T09:35:29;21.33;;;12.53;;
23046;SDS011;11691;51.462;6.902;2022-11-20T09:37:55;19.03;;;11.47;;
23046;SDS011;11691;51.462;6.902;2022-11-20T09:40:22;20.37;;;11.83;;
23046;SDS011;11691;51.462;6.902;2022-11-20T09:42:55;19.20;;;11.53;;
23046;SDS011;11691;51.462;6.902;2022-11-20T09:45:29;20.30;;;12.40;;
23046;SDS011;11691;51.462;6.902;2022-11-20T09:50:36;18.60;;;11.40;;
23046;SDS011;11691;51.462;6.902;2022-11-20T09:55:29;18.93;;;10.80;;
23046;SDS011;11691;51.462;6.902;2022-11-20T09:57:56;19.67;;;12.33;;
23046;SDS011;11691;51.462;6.902;2022-11-20T10:00:23;19.47;;;11.53;;
23046;SDS011;11691;51.462;6.902;2022-11-20T10:03:00;18.40;;;11.70;;
23046;SDS011;11691;51.462;6.902;2022-11-20T10:05:28;21.20;;;12.17;;
23046;SDS011;11691;51.462;6.902;2022-11-20T10:08:03;21.50;;;11.80;;
23046;SDS011;11691;51.462;6.902;2022-11-20T10:10:41;23.30;;;12.63;;
23046;SDS011;11691;51.462;6.902;2022-11-20T10:16:02;20.20;;;12.30;;
23046;SDS011;11691;51.462;6.902;2022-11-20T10:24:24;17.97;;;11.17;;
23046;SDS011;11691;51.462;6.902;2022-11-20T10:29:38;18.40;;;11.27;;
23046;SDS011;11691;51.462;6.902;2022-11-20T10:32:25;16.23;;;10.40;;
23046;SDS011;11691;51.462;6.902;2022-11-20T10:34:56;19.90;;;11.70;;
23046;SDS011;11691;51.462;6.902;2022-11-20T10:37:26;18.33;;;10.27;;
23046;SDS011;11691;51.462;6.902;2022-11-20T10:47:54;19.27;;;11.33;;
23046;SDS011;11691;51.462;6.902;2022-11-20T10:50:22;17.13;;;10.93;;
23046;SDS011;11691;51.462;6.902;2022-11-20T11:00:40;22.57;;;12.67;;
23046;SDS011;11691;51.462;6.902;2022-11-20T11:03:15;19.50;;;11.53;;
23046;SDS011;11691;51.462;6.902;2022-11-20T11:05:48;21.37;;;13.03;;
23046;SDS011;11691;51.462;6.902;2022-11-20T11:08:17;19.27;;;12.37;;
23046;SDS011;11691;51.462;6.902;2022-11-20T11:10:50;19.83;;;12.30;;
23046;SDS011;11691;51.462;6.902;2022-11-20T11:13:27;19.53;;;12.40;;
23046;SDS011;11691;51.462;6.902;2022-11-20T11:15:53;20.60;;;12.97;;
23046;SDS011;11691;51.462;6.902;2022-11-20T11:18:32;21.90;;;12.53;;
23046;SDS011;11691;51.462;6.902;2022-11-20T11:20:59;20.13;;;11.43;;
23046;SDS011;11691;51.462;6.902;2022-11-20T11:26:05;20.07;;;11.83;;
23046;SDS011;11691;51.462;6.902;2022-11-20T11:28:31;21.80;;;12.60;;
23046;SDS011;11691;51.462;6.902;2022-11-20T11:30:57;23.20;;;12.60;;
23046;SDS011;11691;51.462;6.902;2022-11-20T11:33:24;19.13;;;12.27;;
23046;SDS011;11691;51.462;6.902;2022-11-20T11:38:28;17.47;;;10.67;;
23046;SDS011;11691;51.462;6.902;2022-11-20T11:40:56;18.93;;;11.67;;
23046;SDS011;11691;51.462;6.902;2022-11-20T11:43:23;18.30;;;11.10;;
23046;SDS011;11691;51.462;6.902;2022-11-20T11:48:57;19.90;;;10.83;;
23046;SDS011;11691;51.462;6.902;2022-11-20T11:51:25;18.30;;;10.83;;
23046;SDS011;11691;51.462;6.902;2022-11-20T11:53:54;21.13;;;11.50;;
23046;SDS011;11691;51.462;6.902;2022-11-20T11:56:20;20.87;;;11.73;;
23046;SDS011;11691;51.462;6.902;2022-11-20T11:58:47;18.60;;;11.20;;
23046;SDS011;11691;51.462;6.902;2022-11-20T12:04:02;21.13;;;11.37;;
23046;SDS011;11691;51.462;6.902;2022-11-20T12:06:30;21.00;;;11.10;;
23046;SDS011;11691;51.462;6.902;2022-11-20T12:09:01;23.63;;;12.00;;
23046;SDS011;11691;51.462;6.902;2022-11-20T12:11:33;21.60;;;12.87;;
23046;SDS011;11691;51.462;6.902;2022-11-20T12:14:03;22.13;;;12.73;;
23046;SDS011;11691;51.462;6.902;2022-11-20T12:16:30;21.60;;;12.50;;
23046;SDS011;11691;51.462;6.902;2022-11-20T12:19:00;21.37;;;13.20;;
23046;SDS011;11691;51.462;6.902;2022-11-20T12:21:28;21.00;;;12.43;;
23046;SDS011;11691;51.462;6.902;2022-11-20T12:42:59;21.17;;;12.20;;
23046;SDS011;11691;51.462;6.902;2022-11-20T13:06:40;22.97;;;12.97;;
23046;SDS011;11691;51.462;6.902;2022-11-20T13:09:08;27.50;;;15.33;;
23046;SDS011;11691;51.462;6.902;2022-11-20T13:11:48;31.30;;;15.20;;
23046;SDS011;11691;51.462;6.902;2022-11-20T13:14:22;23.63;;;13.23;;
23046;SDS011;11691;51.462;6.902;2022-11-20T13:19:46;23.97;;;12.87;;
23046;SDS011;11691;51.462;6.902;2022-11-20T13:22:12;23.70;;;13.10;;
23046;SDS011;11691;51.462;6.902;2022-11-20T13:24:38;24.77;;;13.23;;
23046;SDS011;11691;51.462;6.902;2022-11-20T13:29:40;22.97;;;13.53;;
23046;SDS011;11691;51.462;6.902;2022-11-20T13:32:14;21.50;;;12.57;;
23046;SDS011;11691;51.462;6.902;2022-11-20T13:34:51;26.27;;;13.33;;
23046;SDS011;11691;51.462;6.902;2022-11-20T13:37:31;23.93;;;12.87;;
23046;SDS011;11691;51.462;6.902;2022-11-20T13:42:38;27.60;;;14.67;;
23046;SDS011;11691;51.462;6.902;2022-11-20T13:45:20;26.80;;;13.87;;
23046;SDS011;11691;51.462;6.902;2022-11-20T13:47:47;25.57;;;13.63;;
23046;SDS011;11691;51.462;6.902;2022-11-20T13:50:14;27.87;;;14.40;;
23046;SDS011;11691;51.462;6.902;2022-11-20T13:55:16;24.87;;;14.27;;
23046;SDS011;11691;51.462;6.902;2022-11-20T14:00:24;28.70;;;16.13;;
23046;SDS011;11691;51.462;6.902;2022-11-20T14:03:36;28.33;;;15.77;;
23046;SDS011;11691;51.462;6.902;2022-11-20T14:05:46;26.20;;;15.00;;
23046;SDS011;11691;51.462;6.902;2022-11-20T14:08:25;31.43;;;16.27;;
23046;SDS011;11691;51.462;6.902;2022-11-20T14:13:30;29.27;;;16.13;;
23046;SDS011;11691;51.462;6.902;2022-11-20T14:15:56;28.43;;;16.63;;
23046;SDS011;11691;51.462;6.902;2022-11-20T14:18:24;30.93;;;15.97;;
23046;SDS011;11691;51.462;6.902;2022-11-20T14:20:51;33.23;;;18.47;;
23046;SDS011;11691;51.462;6.902;2022-11-20T14:23:24;32.83;;;18.10;;
23046;SDS011;11691;51.462;6.902;2022-11-20T14:25:51;32.70;;;17.43;;
23046;SDS011;11691;51.462;6.902;2022-11-20T14:28:20;31.90;;;16.77;;
23046;SDS011;11691;51.462;6.902;2022-11-20T14:30:55;33.50;;;16.87;;
23046;SDS011;11691;51.462;6.902;2022-11-20T14:33:22;33.47;;;18.13;;
23046;SDS011;11691;51.462;6.902;2022-11-20T14:35:53;33.50;;;17.60;;
23046;SDS011;11691;51.462;6.902;2022-11-20T14:38:29;36.00;;;18.83;;
23046;SDS011;11691;51.462;6.902;2022-11-20T14:43:59;34.03;;;17.67;;
23046;SDS011;11691;51.462;6.902;2022-11-20T14:46:25;35.37;;;17.87;;
23046;SDS011;11691;51.462;6.902;2022-11-20T14:48:53;32.87;;;18.07;;
23046;SDS011;11691;51.462;6.902;2022-11-20T14:51:34;32.47;;;16.97;;
23046;SDS011;11691;51.462;6.902;2022-11-20T14:54:16;30.80;;;16.17;;
23046;SDS011;11691;51.462;6.902;2022-11-20T14:56:53;32.90;;;17.83;;
23046;SDS011;11691;51.462;6.902;2022-11-20T14:59:23;33.83;;;17.93;;
23046;SDS011;11691;51.462;6.902;2022-11-20T15:02:06;32.93;;;17.00;;
23046;SDS011;11691;51.462;6.902;2022-11-20T15:04:44;32.60;;;16.60;;
23046;SDS011;11691;51.462;6.902;2022-11-20T15:07:11;32.33;;;16.90;;
23046;SDS011;11691;51.462;6.902;2022-11-20T15:09:37;35.50;;;17.50;;
23046;SDS011;11691;51.462;6.902;2022-11-20T15:12:03;33.60;;;17.70;;
23046;SDS011;11691;51.462;6.902;2022-11-20T15:14:30;35.63;;;18.30;;
23046;SDS011;11691;51.462;6.902;2022-11-20T15:16:57;35.37;;;19.13;;
23046;SDS011;11691;51.462;6.902;2022-11-20T15:19:25;37.33;;;18.47;;
23046;SDS011;11691;51.462;6.902;2022-11-20T15:21:52;34.30;;;18.20;;
23046;SDS011;11691;51.462;6.902;2022-11-20T15:24:18;37.30;;;19.80;;
23046;SDS011;11691;51.462;6.902;2022-11-20T15:26:44;35.07;;;19.07;;
23046;SDS011;11691;51.462;6.902;2022-11-20T15:29:12;32.23;;;16.97;;
23046;SDS011;11691;51.462;6.902;2022-11-20T15:31:38;37.90;;;18.33;;
23046;SDS011;11691;51.462;6.902;2022-11-20T15:34:13;34.13;;;17.77;;
23046;SDS011;11691;51.462;6.902;2022-11-20T15:36:39;38.70;;;19.20;;
23046;SDS011;11691;51.462;6.902;2022-11-20T15:39:06;34.37;;;18.60;;
23046;SDS011;11691;51.462;6.902;2022-11-20T15:41:32;31.83;;;17.97;;
23046;SDS011;11691;51.462;6.902;2022-11-20T15:43:58;36.30;;;18.30;;
23046;SDS011;11691;51.462;6.902;2022-11-20T15:46:28;34.73;;;18.83;;
23046;SDS011;11691;51.462;6.902;2022-11-20T15:48:58;34.17;;;18.60;;
23046;SDS011;11691;51.462;6.902;2022-11-20T15:53:51;37.30;;;19.23;;
23046;SDS011;11691;51.462;6.902;2022-11-20T15:56:17;33.27;;;18.37;;
23046;SDS011;11691;51.462;6.902;2022-11-20T15:58:43;34.50;;;18.53;;
23046;SDS011;11691;51.462;6.902;2022-11-20T16:01:13;33.40;;;18.63;;
23046;SDS011;11691;51.462;6.902;2022-11-20T16:03:40;37.47;;;19.83;;
23046;SDS011;11691;51.462;6.902;2022-11-20T16:06:07;31.50;;;18.00;;
23046;SDS011;11691;51.462;6.902;2022-11-20T16:08:33;36.30;;;18.93;;
23046;SDS011;11691;51.462;6.902;2022-11-20T16:10:59;36.33;;;19.80;;
23046;SDS011;11691;51.462;6.902;2022-11-20T16:13:25;37.87;;;19.90;;
23046;SDS011;11691;51.462;6.902;2022-11-20T16:16:11;37.77;;;19.93;;
23046;SDS011;11691;51.462;6.902;2022-11-20T16:18:47;41.53;;;22.80;;
23046;SDS011;11691;51.462;6.902;2022-11-20T16:21:13;42.47;;;21.33;;
23046;SDS011;11691;51.462;6.902;2022-11-20T16:23:40;44.20;;;22.60;;